Time;durP1;ratioP1;P1;durP2;ratioP2;P2;SDS_P1;SDS_P2;PMS_P1;PMS_P2;Temp;Humidity;BMP_temperature;BMP_pressure;BME280_temperature;BME280_humidity;BME280_pressure;Samples;Min_cycle;Max_cycle;Signal;HPM_P1;HPM_P2
2023/06/30 00:01:26;;;;;;;1999.90;999.90;;;19.30;99.90;;;;;;5053048;28;20029;-78
2023/06/30 00:03:52;;;;;;;1999.90;999.90;;;19.30;99.90;;;;;;5054807;28;20045;-78
2023/06/30 00:06:17;;;;;;;1999.90;999.90;;;19.30;99.90;;;;;;5053068;28;20034;-78
2023/06/30 00:08:43;;;;;;;1999.90;999.90;;;19.30;99.90;;;;;;5053388;28;20029;-78
2023/06/30 00:11:09;;;;;;;1999.90;999.90;;;19.40;99.90;;;;;;5073768;28;20093;-78
2023/06/30 00:13:35;;;;;;;1999.90;999.90;;;19.30;99.90;;;;;;5071330;28;20033;-78
2023/06/30 00:16:01;;;;;;;1999.90;999.90;;;19.30;99.90;;;;;;5054933;28;20034;-78
2023/06/30 00:18:26;;;;;;;1999.90;999.90;;;19.30;99.90;;;;;;5054095;28;20041;-78
2023/06/30 00:20:54;;;;;;;1999.90;999.90;;;19.30;99.90;;;;;;5069306;28;20037;-78
2023/06/30 00:23:20;;;;;;;1999.90;999.90;;;19.30;99.90;;;;;;5073481;28;20033;-78
2023/06/30 00:25:46;;;;;;;1999.90;999.90;;;19.40;99.90;;;;;;5072595;28;20064;-78
2023/06/30 00:28:12;;;;;;;1999.90;999.90;;;19.20;99.90;;;;;;5074575;28;20040;-78
2023/06/30 00:30:38;;;;;;;1999.90;999.90;;;19.10;99.90;;;;;;5059196;28;20376;-78
2023/06/30 00:33:04;;;;;;;1999.90;999.90;;;19.10;99.90;;;;;;5054006;28;20037;-78
2023/06/30 00:35:30;;;;;;;1999.90;999.90;;;19.00;99.90;;;;;;5054639;28;20391;-77
2023/06/30 00:37:55;;;;;;;1999.90;999.90;;;19.00;99.90;;;;;;5058921;28;20797;-78
2023/06/30 00:40:21;;;;;;;1999.90;999.90;;;18.90;99.90;;;;;;5069365;28;20047;-77
2023/06/30 00:42:46;;;;;;;1999.90;999.90;;;18.90;99.90;;;;;;5054800;28;20022;-78
2023/06/30 00:45:12;;;;;;;1999.90;999.90;;;18.90;99.90;;;;;;5074047;28;20068;-77
2023/06/30 00:47:38;;;;;;;1999.90;999.90;;;18.90;99.90;;;;;;5072143;28;20025;-77
2023/06/30 00:50:04;;;;;;;1999.90;999.90;;;18.80;99.90;;;;;;5073331;28;20038;-78
2023/06/30 00:52:30;;;;;;;1999.90;999.90;;;18.80;99.90;;;;;;5072051;28;20491;-78
2023/06/30 00:54:55;;;;;;;1999.90;999.90;;;18.70;99.90;;;;;;5073820;28;20085;-78
2023/06/30 00:57:21;;;;;;;1999.90;999.90;;;18.60;99.90;;;;;;5076838;28;20107;-77
2023/06/30 00:59:47;;;;;;;1999.90;999.90;;;18.70;99.90;;;;;;5076106;28;20048;-77
2023/06/30 01:02:27;;;;;;;1999.90;999.90;;;18.70;99.90;;;;;;5076981;28;20035;-78
2023/06/30 01:05:15;;;;;;;1999.90;999.90;;;18.60;99.90;;;;;;5077540;28;20504;-78
2023/06/30 01:08:10;;;;;;;1999.90;999.90;;;18.50;99.90;;;;;;5070013;28;20731;-77
2023/06/30 01:10:36;;;;;;;1999.90;999.90;;;18.40;99.90;;;;;;5065207;28;20084;-77
2023/06/30 01:13:03;;;;;;;1999.90;999.90;;;18.40;99.90;;;;;;5076899;28;20036;-77
2023/06/30 01:15:29;;;;;;;1999.90;999.90;;;18.40;99.90;;;;;;5061960;28;20037;-78
2023/06/30 01:17:59;;;;;;;1999.90;999.90;;;18.40;99.90;;;;;;5058335;28;20030;-77
2023/06/30 01:20:32;;;;;;;1999.90;999.90;;;18.40;99.90;;;;;;5071186;28;20044;-77
2023/06/30 01:23:22;;;;;;;1999.90;999.90;;;18.30;99.90;;;;;;5076727;28;20032;-77
2023/06/30 01:25:49;;;;;;;1999.90;999.90;;;18.30;99.90;;;;;;5075367;28;20040;-77
2023/06/30 01:28:16;;;;;;;1999.90;999.90;;;18.30;99.90;;;;;;5075347;28;20039;-77
2023/06/30 01:30:41;;;;;;;1999.90;999.90;;;18.30;99.90;;;;;;5076171;28;20033;-77
2023/06/30 01:33:07;;;;;;;1999.90;999.90;;;18.20;99.90;;;;;;5075016;28;20106;-77
2023/06/30 01:35:33;;;;;;;1999.90;999.90;;;18.20;99.90;;;;;;5076717;28;20037;-77
2023/06/30 01:37:59;;;;;;;1999.90;999.90;;;18.10;99.90;;;;;;5075834;28;20033;-77
2023/06/30 01:40:25;;;;;;;1999.90;999.90;;;18.10;99.90;;;;;;5060885;28;20072;-77
2023/06/30 01:42:53;;;;;;;1999.90;999.90;;;18.10;99.90;;;;;;5056230;28;20433;-77
2023/06/30 01:45:21;;;;;;;1999.90;999.90;;;18.10;99.90;;;;;;5056226;28;20491;-77
2023/06/30 01:47:47;;;;;;;1999.90;999.90;;;18.00;99.90;;;;;;5054536;28;20029;-77
2023/06/30 01:50:13;;;;;;;1999.90;999.90;;;18.00;99.90;;;;;;5070824;28;20452;-77
2023/06/30 01:52:39;;;;;;;1999.90;999.90;;;18.00;99.90;;;;;;5063903;28;20033;-77
2023/06/30 01:55:04;;;;;;;1999.90;999.90;;;17.90;99.90;;;;;;5054725;28;20080;-77
2023/06/30 01:57:30;;;;;;;1999.90;999.90;;;17.90;99.90;;;;;;5055948;28;20033;-77
2023/06/30 01:59:56;;;;;;;1999.90;999.90;;;17.90;99.90;;;;;;5053949;28;20086;-77
2023/06/30 02:02:21;;;;;;;1999.90;999.90;;;17.90;99.90;;;;;;5055928;28;20479;-77
2023/06/30 02:04:47;;;;;;;1999.90;999.90;;;17.80;99.90;;;;;;5058873;28;20045;-76
2023/06/30 02:07:12;;;;;;;1999.90;999.90;;;17.80;99.90;;;;;;5074083;28;20033;-79
2023/06/30 02:09:38;;;;;;;1999.90;999.90;;;17.70;99.90;;;;;;5074661;28;20360;-79
2023/06/30 02:12:04;;;;;;;1999.90;999.90;;;17.80;99.90;;;;;;5073978;28;24971;-79
2023/06/30 02:14:30;;;;;;;1999.90;999.90;;;17.70;99.90;;;;;;5075753;28;20041;-79
2023/06/30 02:16:56;;;;;;;1999.90;999.90;;;17.70;99.90;;;;;;5075717;28;20140;-79
2023/06/30 02:19:23;;;;;;;1999.90;999.90;;;17.70;99.90;;;;;;5069409;28;20046;-79
2023/06/30 02:21:52;;;;;;;1999.90;999.90;;;17.60;99.90;;;;;;5054099;28;20029;-79
2023/06/30 02:24:17;;;;;;;1999.90;999.90;;;17.60;99.90;;;;;;5055582;28;20510;-79
2023/06/30 02:26:45;;;;;;;1999.90;999.90;;;17.60;99.90;;;;;;5054144;28;20104;-79
2023/06/30 02:29:10;;;;;;;1999.90;999.90;;;17.60;99.90;;;;;;5055260;28;20459;-79
2023/06/30 02:31:36;;;;;;;1999.90;999.90;;;17.60;99.90;;;;;;5055270;28;20088;-79
2023/06/30 02:34:01;;;;;;;1999.90;999.90;;;17.50;99.90;;;;;;5055093;28;20400;-80
2023/06/30 02:36:27;;;;;;;1999.90;999.90;;;17.50;99.90;;;;;;5055457;28;20096;-79
2023/06/30 02:38:52;;;;;;;1999.90;999.90;;;17.50;99.90;;;;;;5055223;28;20507;-79
2023/06/30 02:41:18;;;;;;;1999.90;999.90;;;17.40;99.90;;;;;;5055220;28;20030;-79
2023/06/30 02:43:43;;;;;;;1999.90;999.90;;;17.40;99.90;;;;;;5053554;28;25373;-79
2023/06/30 02:46:09;;;;;;;1999.90;999.90;;;17.40;99.90;;;;;;5055319;28;20038;-79
2023/06/30 02:48:35;;;;;;;1999.90;999.90;;;17.40;99.90;;;;;;5055060;28;20037;-79
2023/06/30 02:51:00;;;;;;;1999.90;999.90;;;17.40;99.90;;;;;;5053113;28;20052;-79
2023/06/30 02:53:26;;;;;;;1999.90;999.90;;;17.40;99.90;;;;;;5055292;28;20037;-79
2023/06/30 02:55:51;;;;;;;1999.90;999.90;;;17.40;99.90;;;;;;5053515;28;20034;-79
2023/06/30 02:58:17;;;;;;;1999.90;999.90;;;17.40;99.90;;;;;;5054949;28;20672;-79
2023/06/30 03:00:43;;;;;;;1999.90;999.90;;;17.40;99.90;;;;;;5054741;28;20045;-79
2023/06/30 03:03:09;;;;;;;1999.90;999.90;;;17.50;99.90;;;;;;5054894;28;20038;-79
2023/06/30 03:05:34;;;;;;;1999.90;999.90;;;17.40;99.90;;;;;;5054951;28;20056;-79
2023/06/30 03:08:00;;;;;;;1999.90;999.90;;;17.40;99.90;;;;;;5054984;28;20113;-79
2023/06/30 03:10:25;;;;;;;1999.90;999.90;;;17.40;99.90;;;;;;5054822;28;20440;-79
2023/06/30 03:12:51;;;;;;;1999.90;999.90;;;17.30;99.90;;;;;;5053204;28;20487;-79
2023/06/30 03:15:17;;;;;;;1999.90;999.90;;;17.30;99.90;;;;;;5054882;28;20048;-79
2023/06/30 03:17:43;;;;;;;1999.90;999.90;;;17.30;99.90;;;;;;5054642;28;20033;-79
2023/06/30 03:20:11;;;;;;;1999.90;999.90;;;17.20;99.90;;;;;;5052319;28;20406;-79
2023/06/30 03:22:37;;;;;;;1999.90;999.90;;;17.20;99.90;;;;;;5053876;28;20175;-80
2023/06/30 03:25:04;;;;;;;1999.90;999.90;;;17.10;99.90;;;;;;5067351;28;20159;-79
2023/06/30 03:27:29;;;;;;;1999.90;999.90;;;17.10;99.90;;;;;;5074399;28;20029;-79
2023/06/30 03:29:55;;;;;;;1999.90;999.90;;;17.00;99.90;;;;;;5057282;28;21824;-79
2023/06/30 03:32:20;;;;;;;1999.90;999.90;;;17.00;99.90;;;;;;5054328;28;20037;-79
2023/06/30 03:34:46;;;;;;;1999.90;999.90;;;17.00;99.90;;;;;;5064688;28;20060;-79
2023/06/30 03:37:11;;;;;;;1999.90;999.90;;;16.90;99.90;;;;;;5074688;28;20029;-79
2023/06/30 03:39:38;;;;;;;1999.90;999.90;;;16.90;99.90;;;;;;5072897;28;20490;-79
2023/06/30 03:42:04;;;;;;;1999.90;999.90;;;17.00;99.90;;;;;;5072991;28;20037;-79
2023/06/30 03:44:30;;;;;;;1999.90;999.90;;;17.00;99.90;;;;;;5061172;28;20041;-79
2023/06/30 03:46:55;;;;;;;1999.90;999.90;;;17.00;99.90;;;;;;5054512;28;20033;-79
2023/06/30 03:49:21;;;;;;;1999.90;999.90;;;17.00;99.90;;;;;;5053942;28;20403;-80
2023/06/30 03:51:47;;;;;;;1999.90;999.90;;;17.10;99.90;;;;;;5054212;28;20032;-79
2023/06/30 03:54:12;;;;;;;1999.90;999.90;;;17.10;99.90;;;;;;5064368;28;20079;-78
2023/06/30 03:56:38;;;;;;;1999.90;999.90;;;17.10;99.90;;;;;;5074552;28;20457;-78
2023/06/30 03:59:03;;;;;;;1999.90;999.90;;;17.10;99.90;;;;;;5072704;28;20045;-79
2023/06/30 04:01:33;;;;;;;1999.90;999.90;;;17.10;99.90;;;;;;5072810;28;20124;-79
2023/06/30 04:03:59;;;;;;;1999.90;999.90;;;17.20;99.90;;;;;;5074178;28;20045;-79
2023/06/30 04:06:24;;;;;;;1999.90;999.90;;;17.30;99.90;;;;;;5074385;28;20037;-79
2023/06/30 04:08:50;;;;;;;1999.90;999.90;;;17.40;99.90;;;;;;5072768;28;20029;-79
2023/06/30 04:11:15;;;;;;;1999.90;999.90;;;17.50;99.90;;;;;;5073970;28;20456;-79
2023/06/30 04:13:41;;;;;;;1999.90;999.90;;;17.50;99.90;;;;;;5074153;28;20029;-79
2023/06/30 04:16:07;;;;;;;1999.90;999.90;;;17.60;99.90;;;;;;5074504;28;20087;-80
2023/06/30 04:18:33;;;;;;;1999.90;999.90;;;17.70;99.90;;;;;;5074246;28;20821;-79
2023/06/30 04:20:58;;;;;;;1999.90;999.90;;;17.70;99.90;;;;;;5072676;28;20037;-79
2023/06/30 04:23:24;;;;;;;1999.90;999.90;;;17.80;99.90;;;;;;5074060;28;20041;-79
2023/06/30 04:25:50;;;;;;;1999.90;999.90;;;17.90;99.90;;;;;;5074219;28;20025;-79
2023/06/30 04:28:16;;;;;;;1999.90;999.90;;;18.00;99.90;;;;;;5074126;28;20036;-79
2023/06/30 04:30:41;;;;;;;1999.90;999.90;;;18.10;99.90;;;;;;5076008;28;20044;-79
2023/06/30 04:33:07;;;;;;;1999.90;999.90;;;18.20;99.90;;;;;;5073598;28;20083;-79
2023/06/30 04:35:32;;;;;;;1999.90;999.90;;;18.20;99.90;;;;;;5057365;28;20034;-79
2023/06/30 04:37:58;;;;;;;1999.90;999.90;;;18.30;99.90;;;;;;5057232;28;20415;-79
2023/06/30 04:40:23;;;;;;;1999.90;999.90;;;18.30;99.90;;;;;;5057174;28;20038;-78
2023/06/30 04:42:49;;;;;;;1999.90;999.90;;;18.30;99.90;;;;;;5055849;28;20044;-78
2023/06/30 04:45:14;;;;;;;1999.90;999.90;;;18.30;99.90;;;;;;5057076;28;20039;-79
2023/06/30 04:47:40;;;;;;;1999.90;999.90;;;18.40;99.90;;;;;;5059358;28;20029;-79
2023/06/30 04:50:06;;;;;;;1999.90;999.90;;;18.40;99.90;;;;;;5074044;28;20498;-79
2023/06/30 04:52:31;;;;;;;1999.90;999.90;;;18.40;99.90;;;;;;5077128;28;20052;-78
2023/06/30 04:54:57;;;;;;;1999.90;999.90;;;18.30;99.90;;;;;;5077270;28;20044;-78
2023/06/30 04:57:23;;;;;;;1999.90;999.90;;;18.20;99.90;;;;;;5076436;28;20517;-78
2023/06/30 04:59:51;;;;;;;1999.90;999.90;;;18.30;99.90;;;;;;5076936;28;20048;-78
2023/06/30 05:02:17;;;;;;;1999.90;999.90;;;18.30;99.90;;;;;;5075444;28;20112;-78
2023/06/30 05:04:42;;;;;;;1999.90;999.90;;;18.30;99.90;;;;;;5060236;28;20426;-78
2023/06/30 05:07:09;;;;;;;1999.90;999.90;;;18.30;99.90;;;;;;5057072;28;20038;-78
2023/06/30 05:09:35;;;;;;;1999.90;999.90;;;18.30;99.90;;;;;;5076893;28;20041;-78
2023/06/30 05:12:01;;;;;;;1999.90;999.90;;;18.40;99.90;;;;;;5076712;28;20055;-77
2023/06/30 05:14:26;;;;;;;1999.90;999.90;;;18.40;99.90;;;;;;5076968;28;20493;-78
2023/06/30 05:16:52;;;;;;;1999.90;999.90;;;18.40;99.90;;;;;;5067440;28;20041;-77
2023/06/30 05:19:17;;;;;;;1999.90;999.90;;;18.50;99.90;;;;;;5056586;28;20033;-78
2023/06/30 05:21:43;;;;;;;1999.90;999.90;;;18.60;99.90;;;;;;5056510;28;20037;-78
2023/06/30 05:24:08;;;;;;;1999.90;999.90;;;18.60;99.90;;;;;;5056393;28;20075;-78
2023/06/30 05:26:34;;;;;;;1999.90;999.90;;;18.70;99.90;;;;;;5065351;28;20037;-77
2023/06/30 05:28:59;;;;;;;1999.90;999.90;;;18.80;99.90;;;;;;5076641;28;20487;-77
2023/06/30 05:31:25;;;;;;;1999.90;999.90;;;18.80;99.90;;;;;;5077611;28;20104;-79
2023/06/30 05:33:50;;;;;;;1999.90;999.90;;;18.90;99.90;;;;;;5078613;28;20124;-79
2023/06/30 05:36:16;;;;;;;1999.90;999.90;;;18.90;99.90;;;;;;5076320;28;20029;-79
2023/06/30 05:38:41;;;;;;;1999.90;999.90;;;19.00;99.90;;;;;;5069981;28;20053;-79
2023/06/30 05:41:07;;;;;;;1999.90;999.90;;;19.00;99.90;;;;;;5056529;28;20527;-78
2023/06/30 05:43:32;;;;;;;1999.90;999.90;;;19.10;99.90;;;;;;5055800;28;20036;-77
2023/06/30 05:45:58;;;;;;;1999.90;999.90;;;19.20;99.90;;;;;;5056157;28;20029;-77
2023/06/30 05:48:23;;;;;;;1999.90;999.90;;;19.20;99.90;;;;;;5056337;28;20038;-77
2023/06/30 05:50:49;;;;;;;1999.90;999.90;;;19.20;99.90;;;;;;5055707;28;20037;-77
2023/06/30 05:53:14;;;;;;;1999.90;999.90;;;19.30;99.90;;;;;;5056643;28;20033;-78
2023/06/30 05:55:40;;;;;;;1999.90;999.90;;;19.40;99.90;;;;;;5056897;28;20104;-79
2023/06/30 05:58:05;;;;;;;1999.90;999.90;;;19.40;99.90;;;;;;5056727;28;20473;-79
2023/06/30 06:00:31;;;;;;;1999.90;999.90;;;19.40;99.90;;;;;;5056704;28;20033;-79
2023/06/30 06:02:56;;;;;;;1999.90;999.90;;;19.50;99.90;;;;;;5055743;28;20068;-79
2023/06/30 06:05:22;;;;;;;1999.90;999.90;;;19.50;99.90;;;;;;5057858;28;20472;-78
2023/06/30 06:07:48;;;;;;;1999.90;999.90;;;19.60;99.90;;;;;;5055993;28;20052;-79
2023/06/30 06:10:14;;;;;;;1999.90;999.90;;;19.60;99.90;;;;;;5055221;28;20499;-79
2023/06/30 06:12:40;;;;;;;1999.90;999.90;;;19.60;99.90;;;;;;5057252;28;20041;-79
2023/06/30 06:15:09;;;;;;;1999.90;999.90;;;19.70;99.90;;;;;;5056715;28;20033;-79
2023/06/30 06:17:34;;;;;;;1999.90;999.90;;;19.60;99.90;;;;;;5056912;28;20041;-77
2023/06/30 06:20:00;;;;;;;1999.90;999.90;;;19.70;99.90;;;;;;5078594;28;20045;-79
2023/06/30 06:22:26;;;;;;;1999.90;999.90;;;19.80;99.90;;;;;;5066879;28;20108;-77
2023/06/30 06:24:51;;;;;;;1999.90;999.90;;;19.80;99.90;;;;;;5071472;28;20104;-78
2023/06/30 06:27:17;;;;;;;1999.90;999.90;;;19.90;99.90;;;;;;5076308;28;20044;-78
2023/06/30 06:29:42;;;;;;;1999.90;999.90;;;19.90;99.90;;;;;;5064175;28;20041;-78
2023/06/30 06:32:08;;;;;;;1999.90;999.90;;;19.70;99.90;;;;;;5078002;28;20029;-78
2023/06/30 06:34:34;;;;;;;1999.90;999.90;;;19.60;99.90;;;;;;5077759;28;20111;-78
2023/06/30 06:37:00;;;;;;;1999.90;999.90;;;19.50;99.90;;;;;;5079511;28;20549;-78
2023/06/30 06:39:26;;;;;;;1999.90;999.90;;;19.50;99.90;;;;;;5065440;28;20056;-77
2023/06/30 06:41:51;;;;;;;1999.90;999.90;;;19.30;99.90;;;;;;5057308;28;20116;-77
2023/06/30 06:44:17;;;;;;;1999.90;999.90;;;19.00;99.90;;;;;;5058205;28;20084;-78
2023/06/30 06:46:43;;;;;;;1999.90;999.90;;;18.80;99.90;;;;;;5066720;28;20108;-78
2023/06/30 06:49:09;;;;;;;1999.90;999.90;;;18.70;99.90;;;;;;5079892;28;20033;-78
2023/06/30 06:51:34;;;;;;;1999.90;999.90;;;18.60;99.90;;;;;;5078762;28;20037;-78
2023/06/30 06:54:00;;;;;;;1999.90;999.90;;;18.50;99.90;;;;;;5074338;28;20044;-79
2023/06/30 06:56:25;;;;;;;1999.90;999.90;;;18.50;99.90;;;;;;5059720;28;20041;-78
2023/06/30 06:58:51;;;;;;;1999.90;999.90;;;18.50;99.90;;;;;;5070769;28;20072;-77
2023/06/30 07:01:16;;;;;;;1999.90;999.90;;;18.60;99.90;;;;;;5067448;28;20068;-77
2023/06/30 07:03:45;;;;;;;1999.90;999.90;;;18.50;99.90;;;;;;5065614;28;20041;-78
2023/06/30 07:06:11;;;;;;;1999.90;999.90;;;18.60;99.90;;;;;;5064281;28;20727;-76
2023/06/30 07:08:37;;;;;;;1999.90;999.90;;;18.60;99.90;;;;;;5061848;28;20029;-77
2023/06/30 07:11:03;;;;;;;1999.90;999.90;;;18.70;99.90;;;;;;5072247;28;20032;-78
2023/06/30 07:13:29;;;;;;;1999.90;999.90;;;18.50;99.90;;;;;;5076255;28;20037;-77
2023/06/30 07:15:55;;;;;;;1999.90;999.90;;;18.50;99.90;;;;;;5058447;28;20033;-78
2023/06/30 07:18:21;;;;;;;1999.90;999.90;;;18.60;99.90;;;;;;5057180;28;20033;-77
2023/06/30 07:20:48;;;;;;;1999.90;999.90;;;18.70;99.90;;;;;;5056778;28;20040;-78
2023/06/30 07:23:14;;;;;;;1999.90;999.90;;;18.90;99.90;;;;;;5074663;28;20032;-78
2023/06/30 07:25:40;;;;;;;1999.90;999.90;;;19.10;99.90;;;;;;5072304;28;20739;-78
2023/06/30 07:28:05;;;;;;;1999.90;999.90;;;19.20;99.90;;;;;;5056560;28;20033;-78
2023/06/30 07:30:31;;;;;;;1999.90;999.90;;;19.40;99.90;;;;;;5057417;28;20364;-77
2023/06/30 07:32:56;;;;;;;1999.90;999.90;;;19.40;99.90;;;;;;5069799;28;20044;-75
2023/06/30 07:35:23;;;;;;;1999.90;999.90;;;19.70;99.90;;;;;;5074986;28;20080;-75
2023/06/30 07:37:49;;;;;;;1999.90;999.90;;;19.80;99.90;;;;;;5074242;28;20082;-75
2023/06/30 07:40:16;;;;;;;1999.90;999.90;;;19.80;99.90;;;;;;5055887;28;20041;-75
2023/06/30 07:42:42;;;;;;;1999.90;999.90;;;19.90;99.90;;;;;;5062342;28;20033;-75
2023/06/30 07:45:14;;;;;;;1999.90;999.90;;;20.10;99.90;;;;;;5067142;28;20077;-73
2023/06/30 07:47:41;;;;;;;1999.90;999.90;;;20.40;99.90;;;;;;5054990;28;20060;-74
2023/06/30 07:50:10;;;;;;;1999.90;999.90;;;20.60;99.90;;;;;;5051141;28;20830;-74
2023/06/30 07:52:42;;;;;;;1999.90;999.90;;;20.70;99.90;;;;;;5063242;28;20112;-74
2023/06/30 07:55:07;;;;;;;1999.90;999.90;;;20.70;99.90;;;;;;5073314;28;20033;-75
2023/06/30 07:57:33;;;;;;;1999.90;999.90;;;20.90;99.90;;;;;;5074594;28;20029;-74
2023/06/30 07:59:58;;;;;;;1999.90;999.90;;;21.10;99.90;;;;;;5074310;28;20108;-74
2023/06/30 08:02:24;;;;;;;1999.90;999.90;;;21.40;99.90;;;;;;5066726;28;20047;-74
2023/06/30 08:04:50;;;;;;;1999.90;999.90;;;21.30;99.90;;;;;;5054612;22;20085;-75
2023/06/30 08:07:16;;;;;;;1999.90;999.90;;;21.30;99.90;;;;;;5040856;28;20138;-75
2023/06/30 08:09:41;;;;;;;1999.90;999.90;;;21.30;99.90;;;;;;5039527;28;20026;-75
2023/06/30 08:12:08;;;;;;;1999.90;999.90;;;21.20;99.90;;;;;;5040581;28;20113;-77
2023/06/30 08:14:33;;;;;;;1999.90;999.90;;;21.40;99.90;;;;;;5040450;28;20042;-76
2023/06/30 08:16:59;;;;;;;1999.90;999.90;;;21.60;99.90;;;;;;5041250;28;20033;-78
2023/06/30 08:19:24;;;;;;;1999.90;999.90;;;21.90;99.90;;;;;;5040800;28;20042;-77
2023/06/30 08:21:50;;;;;;;1999.90;999.90;;;22.10;99.90;;;;;;5039120;28;20053;-77
2023/06/30 08:24:15;;;;;;;1999.90;999.90;;;22.20;99.90;;;;;;5040568;28;20042;-77
2023/06/30 08:26:41;;;;;;;1999.90;999.90;;;22.40;99.90;;;;;;5040343;28;20030;-77
2023/06/30 08:29:06;;;;;;;1999.90;999.90;;;22.40;99.90;;;;;;5039781;28;20522;-77
2023/06/30 08:31:32;;;;;;;1999.90;999.90;;;22.70;99.90;;;;;;5040421;28;20044;-76
2023/06/30 08:33:58;;;;;;;1999.90;999.90;;;23.00;99.90;;;;;;5040382;28;20104;-77
2023/06/30 08:36:23;;;;;;;1999.90;999.90;;;23.20;99.90;;;;;;5040447;28;20037;-77
2023/06/30 08:38:49;;;;;;;1999.90;999.90;;;23.40;99.90;;;;;;5039002;28;20042;-77
2023/06/30 08:41:15;;;;;;;1999.90;999.90;;;23.80;99.90;;;;;;5040116;28;20121;-77
2023/06/30 08:43:41;;;;;;;1999.90;999.90;;;24.20;99.90;;;;;;5039041;28;20030;-77
2023/06/30 08:46:08;;;;;;;1999.90;999.90;;;24.20;99.90;;;;;;5040320;28;20029;-77
2023/06/30 08:48:36;;;;;;;1999.90;999.90;;;24.00;99.90;;;;;;5040399;28;20041;-77
2023/06/30 08:51:02;;;;;;;1999.90;999.90;;;24.00;99.90;;;;;;5039845;28;20522;-77
2023/06/30 08:53:30;;;;;;;1999.90;999.90;;;23.80;99.90;;;;;;5040138;28;20034;-77
2023/06/30 08:55:59;;;;;;;1999.90;999.90;;;23.80;99.90;;;;;;5037183;28;20037;-77
2023/06/30 08:58:26;;;;;;;1999.90;999.90;;;23.80;99.90;;;;;;5032696;28;20124;-77
2023/06/30 09:00:54;;;;;;;1999.90;999.90;;;23.60;99.90;;;;;;5040171;28;20040;-77
2023/06/30 09:03:19;;;;;;;1999.90;999.90;;;23.30;99.90;;;;;;5034469;28;20492;-75
2023/06/30 09:05:46;;;;;;;1999.90;999.90;;;23.10;99.90;;;;;;5032654;28;20038;-75
2023/06/30 09:08:21;;;;;;;1999.90;999.90;;;23.00;99.90;;;;;;5019490;28;20030;-76
2023/06/30 09:10:47;;;;;;;1999.90;999.90;;;22.70;99.90;;;;;;5038786;28;20141;-75
2023/06/30 09:13:14;;;;;;;1999.90;999.90;;;22.70;99.90;;;;;;5028083;28;20042;-77
2023/06/30 09:15:40;;;;;;;1999.90;999.90;;;22.60;99.90;;;;;;5018259;28;20526;-76
2023/06/30 09:18:06;;;;;;;1999.90;999.90;;;22.60;99.90;;;;;;5014718;28;20492;-75
2023/06/30 09:20:32;;;;;;;1999.90;999.90;;;22.50;99.90;;;;;;5018650;28;20108;-72
2023/06/30 09:23:01;;;;;;;1999.90;999.90;;;22.40;99.90;;;;;;5035221;28;20084;-76
2023/06/30 09:25:26;;;;;;;1999.90;999.90;;;22.50;99.90;;;;;;5027055;28;20037;-75
2023/06/30 09:27:53;;;;;;;1999.90;999.90;;;22.50;99.90;;;;;;5029606;28;20522;-75
2023/06/30 09:30:18;;;;;;;1999.90;999.90;;;22.60;99.90;;;;;;5036216;28;20041;-79
2023/06/30 09:32:44;;;;;;;1999.90;999.90;;;22.70;99.90;;;;;;5029159;28;20515;-74
2023/06/30 09:35:19;;;;;;;1999.90;999.90;;;22.50;99.90;;;;;;5025404;28;20034;-75
2023/06/30 09:37:44;;;;;;;1999.90;999.90;;;22.30;99.90;;;;;;5025559;28;20660;-74
2023/06/30 09:40:12;;;;;;;1999.90;999.90;;;22.40;99.90;;;;;;5028760;28;20041;-72
2023/06/30 09:42:37;;;;;;;1999.90;999.90;;;22.60;99.90;;;;;;5023461;28;20045;-72
2023/06/30 09:45:03;;;;;;;1999.90;999.90;;;22.80;99.90;;;;;;5024248;28;20053;-73
2023/06/30 09:47:29;;;;;;;1999.90;999.90;;;22.80;99.90;;;;;;5025784;28;20069;-74
2023/06/30 09:49:54;;;;;;;1999.90;999.90;;;22.80;99.90;;;;;;5024668;28;20038;-77
2023/06/30 09:52:26;;;;;;;1999.90;999.90;;;22.90;99.90;;;;;;5015860;28;20037;-74
2023/06/30 09:54:52;;;;;;;1999.90;999.90;;;22.70;99.90;;;;;;5016190;28;20088;-75
2023/06/30 09:57:17;;;;;;;1999.90;999.90;;;22.70;99.90;;;;;;5022946;28;20430;-75
2023/06/30 09:59:46;;;;;;;1999.90;999.90;;;22.80;99.90;;;;;;5031553;28;20054;-76
2023/06/30 10:02:13;;;;;;;1999.90;999.90;;;23.00;99.90;;;;;;5035274;28;20438;-76
2023/06/30 10:04:39;;;;;;;1999.90;999.90;;;22.90;99.90;;;;;;5029464;28;20046;-74
2023/06/30 10:07:06;;;;;;;1999.90;999.90;;;23.10;99.90;;;;;;5026676;28;20492;-78
2023/06/30 10:09:33;;;;;;;1999.90;999.90;;;23.10;99.90;;;;;;5022704;28;20064;-78
2023/06/30 10:11:59;;;;;;;1999.90;999.90;;;23.10;99.90;;;;;;5026005;28;20045;-79
2023/06/30 10:14:28;;;;;;;1999.90;999.90;;;23.40;99.90;;;;;;5031189;28;20037;-75
2023/06/30 10:16:57;;;;;;;1999.90;999.90;;;23.60;99.90;;;;;;5024225;28;20037;-77
2023/06/30 10:19:24;;;;;;;1999.90;999.90;;;23.80;99.90;;;;;;5028738;28;20482;-76
2023/06/30 10:21:49;;;;;;;1999.90;999.90;;;24.10;99.90;;;;;;5026801;28;20042;-74
2023/06/30 10:24:19;;;;;;;1999.90;999.90;;;24.50;99.90;;;;;;5026583;28;20045;-77
2023/06/30 10:26:47;;;;;;;1999.90;999.90;;;24.90;99.90;;;;;;5020397;28;20029;-76
2023/06/30 10:29:12;;;;;;;1999.90;999.90;;;25.60;99.90;;;;;;5026716;28;20106;-76
2023/06/30 10:31:39;;;;;;;1999.90;999.90;;;26.00;99.90;;;;;;5019934;28;20077;-75
2023/06/30 10:34:05;;;;;;;1999.90;999.90;;;26.60;99.90;;;;;;5025778;28;20045;-76
2023/06/30 10:36:32;;;;;;;1999.90;999.90;;;26.50;99.90;;;;;;5035202;28;20161;-76
2023/06/30 10:38:57;;;;;;;1999.90;999.90;;;26.50;99.90;;;;;;5033839;28;20216;-74
2023/06/30 10:41:23;;;;;;;1999.90;999.90;;;26.00;99.90;;;;;;5034680;28;20038;-76
2023/06/30 10:44:08;;;;;;;1999.90;999.90;;;26.20;99.80;;;;;;5033636;28;20128;-77
2023/06/30 10:46:46;;;;;;;1999.90;999.90;;;25.80;99.90;;;;;;5027862;28;20042;-78
2023/06/30 10:49:20;;;;;;;1999.90;999.90;;;25.40;99.90;;;;;;5020002;28;20042;-76
2023/06/30 10:51:54;;;;;;;1999.90;999.90;;;25.30;99.90;;;;;;5018984;28;20042;-75
2023/06/30 10:54:20;;;;;;;1999.90;999.90;;;25.00;99.90;;;;;;5020827;28;20072;-76
2023/06/30 10:56:46;;;;;;;1999.90;999.90;;;24.90;99.90;;;;;;5032191;28;20117;-76
2023/06/30 10:59:23;;;;;;;1999.90;999.90;;;24.70;99.90;;;;;;5033067;28;20498;-74
2023/06/30 11:02:13;;;;;;;1999.90;999.90;;;24.40;99.90;;;;;;5025742;28;20531;-74
2023/06/30 11:04:41;;;;;;;1999.90;999.90;;;24.30;99.90;;;;;;5021924;28;20447;-74
2023/06/30 11:07:07;;;;;;;1999.90;999.90;;;24.10;99.90;;;;;;5019626;28;20041;-75
2023/06/30 11:09:53;;;;;;;1999.90;999.90;;;23.80;99.90;;;;;;5026972;28;20037;-76
2023/06/30 11:12:26;;;;;;;1999.90;999.90;;;23.70;99.90;;;;;;5020328;28;20104;-74
2023/06/30 11:14:58;;;;;;;1999.90;999.90;;;23.70;99.90;;;;;;5031566;28;20045;-74
2023/06/30 11:17:25;;;;;;;1999.90;999.90;;;23.80;99.90;;;;;;5029480;28;20038;-75
2023/06/30 11:20:12;;;;;;;1999.90;999.90;;;24.20;99.90;;;;;;5016091;28;20035;-76
2023/06/30 11:22:39;;;;;;;1999.90;999.90;;;24.30;99.90;;;;;;5026159;28;20042;-76
2023/06/30 11:25:08;;;;;;;1999.90;999.90;;;24.30;99.90;;;;;;5034417;28;20030;-75
2023/06/30 11:27:34;;;;;;;1999.90;999.90;;;24.10;99.90;;;;;;5019849;28;20030;-75
2023/06/30 11:30:00;;;;;;;1999.90;999.90;;;23.70;99.90;;;;;;5017261;28;20093;-74
2023/06/30 11:32:30;;;;;;;1999.90;999.90;;;23.50;99.90;;;;;;5024922;28;20038;-74
2023/06/30 11:34:57;;;;;;;1999.90;999.90;;;23.20;99.90;;;;;;5028894;28;20038;-74
2023/06/30 11:37:23;;;;;;;1999.90;999.90;;;23.10;99.90;;;;;;5029667;28;20026;-74
2023/06/30 11:39:53;;;;;;;1999.90;999.90;;;23.00;99.90;;;;;;5031672;28;20061;-74
2023/06/30 11:42:20;;;;;;;1999.90;999.90;;;22.60;99.90;;;;;;5027414;28;20064;-74
2023/06/30 11:44:48;;;;;;;1999.90;999.90;;;22.60;99.90;;;;;;5026850;28;20049;-75
2023/06/30 11:47:14;;;;;;;1999.90;999.90;;;22.70;99.90;;;;;;5034324;28;20757;-74
2023/06/30 11:49:39;;;;;;;1999.90;999.90;;;22.80;99.90;;;;;;5034686;28;20048;-74
2023/06/30 11:52:06;;;;;;;1999.90;999.90;;;23.00;99.90;;;;;;5032631;28;20085;-74
2023/06/30 11:54:32;;;;;;;1999.90;999.90;;;23.20;99.90;;;;;;5027078;28;20125;-75
2023/06/30 11:56:59;;;;;;;1999.90;999.90;;;23.20;99.90;;;;;;5026547;28;20121;-75